createdAt,value
2018-05-12T00:01:48.711Z,99717.41
2018-05-12T00:04:15.146Z,99716.56
2018-05-12T00:06:42.195Z,99714.61
2018-05-12T00:09:08.641Z,99718.78
2018-05-12T00:11:35.088Z,99723.91
2018-05-12T00:14:01.618Z,99718.66
2018-05-12T00:16:28.008Z,99721.97
2018-05-12T00:18:54.467Z,99716.63
2018-05-12T00:21:20.953Z,99720.38
2018-05-12T00:23:47.396Z,99712.16
2018-05-12T00:26:13.805Z,99711.88
2018-05-12T00:28:40.326Z,99706.82
2018-05-12T00:31:06.948Z,99716.12
2018-05-12T00:33:33.334Z,99710.09
2018-05-12T00:35:59.764Z,99707.36
2018-05-12T00:38:26.190Z,99709.30
2018-05-12T00:40:52.668Z,99720.25
2018-05-12T00:43:19.056Z,99718.31
2018-05-12T00:45:45.563Z,99724.84
2018-05-12T00:48:12.043Z,99723.00
2018-05-12T00:50:38.796Z,99725.28
2018-05-12T00:53:05.280Z,99728.08
2018-05-12T00:55:31.656Z,99725.97
2018-05-12T00:57:58.074Z,99724.07
2018-05-12T01:00:24.445Z,99726.56
2018-05-12T01:02:50.977Z,99731.45
2018-05-12T01:05:17.417Z,99721.97
2018-05-12T01:07:43.844Z,99721.20
2018-05-12T01:10:10.319Z,99724.84
2018-05-12T01:12:36.802Z,99726.56
2018-05-12T01:15:04.177Z,99727.33
2018-05-12T01:17:30.771Z,99729.44
2018-05-12T01:19:57.222Z,99728.63
2018-05-12T01:22:24.249Z,99727.77
2018-05-12T01:24:50.740Z,99729.44
2018-05-12T01:27:17.154Z,99735.08
2018-05-12T01:29:43.594Z,99739.52
2018-05-12T01:32:10.030Z,99736.16
2018-05-12T01:34:36.496Z,99737.97
2018-05-12T01:37:02.967Z,99739.22
2018-05-12T01:39:29.539Z,99731.98
2018-05-12T01:41:55.963Z,99735.40
2018-05-12T01:44:22.459Z,99730.30
2018-05-12T01:46:48.915Z,99735.88
2018-05-12T01:49:15.510Z,99734.52
2018-05-12T01:51:41.889Z,99736.78
2018-05-12T01:54:08.400Z,99731.30
2018-05-12T01:56:34.970Z,99731.82
2018-05-12T01:59:01.448Z,99726.56
2018-05-12T02:01:28.020Z,99723.92
2018-05-12T02:03:54.433Z,99730.98
2018-05-12T02:06:20.956Z,99731.33
2018-05-12T02:08:47.557Z,99735.17
2018-05-12T02:11:14.096Z,99733.63
2018-05-12T02:13:40.553Z,99734.93
2018-05-12T02:16:07.056Z,99735.75
2018-05-12T02:18:33.555Z,99729.72
2018-05-12T02:20:59.980Z,99734.41
2018-05-12T02:23:26.509Z,99734.45
2018-05-12T02:25:53.029Z,99732.38
2018-05-12T02:28:19.535Z,99735.20
2018-05-12T02:30:46.037Z,99731.77
2018-05-12T02:33:12.539Z,99731.48
2018-05-12T02:35:39.017Z,99739.59
2018-05-12T02:38:05.575Z,99738.56
2018-05-12T02:40:33.019Z,99739.21
2018-05-12T02:42:59.463Z,99746.92
2018-05-12T02:45:25.919Z,99748.81
2018-05-12T02:47:52.466Z,99746.31
2018-05-12T02:50:18.916Z,99744.64
2018-05-12T02:52:45.361Z,99740.50
2018-05-12T02:55:11.825Z,99749.14
2018-05-12T02:57:38.323Z,99748.61
2018-05-12T03:00:04.808Z,99753.42
2018-05-12T03:02:31.896Z,99749.06
2018-05-12T03:04:58.335Z,99752.05
2018-05-12T03:07:24.822Z,99752.59
2018-05-12T03:09:51.336Z,99752.09
2018-05-12T03:12:17.841Z,99753.34
2018-05-12T03:14:44.256Z,99759.39
2018-05-12T03:17:10.772Z,99756.65
2018-05-12T03:19:37.186Z,99759.25
2018-05-12T03:22:03.649Z,99765.55
2018-05-12T03:24:30.144Z,99757.18
2018-05-12T03:26:56.641Z,99766.64
2018-05-12T03:29:23.133Z,99769.62
2018-05-12T03:31:49.609Z,99768.36
2018-05-12T03:34:17.101Z,99763.42
2018-05-12T03:36:43.601Z,99772.72
2018-05-12T03:39:10.085Z,99765.88
2018-05-12T03:41:36.638Z,99766.73
2018-05-12T03:44:03.131Z,99763.03
2018-05-12T03:46:29.710Z,99766.18
2018-05-12T03:48:56.203Z,99766.63
2018-05-12T03:51:22.731Z,99776.47
2018-05-12T03:53:50.029Z,99769.58
2018-05-12T03:56:16.490Z,99779.63
2018-05-12T03:58:42.919Z,99773.40
2018-05-12T04:01:09.326Z,99775.02
2018-05-12T04:03:35.804Z,99775.78
2018-05-12T04:06:14.322Z,99773.78
2018-05-12T04:08:52.852Z,99776.61
2018-05-12T04:11:31.473Z,99779.39
2018-05-12T04:13:57.918Z,99777.09
2018-05-12T04:16:24.448Z,99769.06
2018-05-12T04:18:50.899Z,99770.56
2018-05-12T04:21:18.235Z,99777.47
2018-05-12T04:23:44.768Z,99786.13
2018-05-12T04:26:11.269Z,99780.61
2018-05-12T04:28:37.707Z,99789.75
2018-05-12T04:31:04.379Z,99791.53
2018-05-12T04:33:30.841Z,99787.45
2018-05-12T04:35:57.284Z,99788.23
2018-05-12T04:38:25.367Z,99792.41
2018-05-12T04:40:51.840Z,99788.34
2018-05-12T04:43:18.366Z,99782.83
2018-05-12T04:45:44.741Z,99783.29
2018-05-12T04:48:11.172Z,99787.39
2018-05-12T04:50:37.806Z,99796.38
2018-05-12T04:53:04.211Z,99796.11
2018-05-12T04:55:30.750Z,99794.73
2018-05-12T04:57:57.166Z,99803.55
2018-05-12T05:00:23.772Z,99803.02
2018-05-12T05:02:50.279Z,99804.77
2018-05-12T05:05:16.750Z,99801.03
2018-05-12T05:07:43.234Z,99799.70
2018-05-12T05:10:09.751Z,99804.74
2018-05-12T05:12:36.169Z,99795.34
2018-05-12T05:15:02.660Z,99797.70
2018-05-12T05:17:29.097Z,99795.02
2018-05-12T05:19:55.547Z,99800.34
2018-05-12T05:22:22.176Z,99799.41
2018-05-12T05:24:48.597Z,99803.52
2018-05-12T05:27:15.159Z,99797.05
2018-05-12T05:29:41.668Z,99800.95
2018-05-12T05:32:08.341Z,99804.10
2018-05-12T05:34:34.926Z,99800.28
2018-05-12T05:37:01.397Z,99801.02
2018-05-12T05:39:27.934Z,99800.44
2018-05-12T05:41:54.369Z,99803.92
2018-05-12T05:44:20.873Z,99800.44
2018-05-12T05:46:47.621Z,99795.11
2018-05-12T05:49:14.951Z,99802.13
2018-05-12T05:51:41.530Z,99806.38
2018-05-12T05:54:08.279Z,99805.02
2018-05-12T05:56:35.202Z,99807.81
2018-05-12T05:59:01.905Z,99808.23
2018-05-12T06:01:28.352Z,99813.13
2018-05-12T06:03:54.965Z,99812.30
2018-05-12T06:06:21.527Z,99813.06
2018-05-12T06:08:47.924Z,99815.81
2018-05-12T06:11:14.414Z,99820.30
2018-05-12T06:13:40.834Z,99823.80
2018-05-12T06:16:07.430Z,99823.73
2018-05-12T06:18:33.877Z,99814.30
2018-05-12T06:21:00.344Z,99813.88
2018-05-12T06:23:26.760Z,99817.10
2018-05-12T06:25:53.207Z,99808.50
2018-05-12T06:28:19.720Z,99814.05
2018-05-12T06:30:46.105Z,99822.03
2018-05-12T06:33:12.510Z,99819.68
2018-05-12T06:35:38.934Z,99819.98
2018-05-12T06:38:05.432Z,99813.27
2018-05-12T06:40:32.148Z,99811.17
2018-05-12T06:42:58.549Z,99813.39
2018-05-12T06:45:25.498Z,99804.38
2018-05-12T06:47:52.038Z,99805.77
2018-05-12T06:50:18.688Z,99797.42
2018-05-12T06:52:45.134Z,99802.31
2018-05-12T06:55:11.596Z,99800.86
2018-05-12T06:57:38.038Z,99798.04
2018-05-12T07:00:04.524Z,99797.30
2018-05-12T07:02:31.066Z,99794.44
2018-05-12T07:04:57.475Z,99792.44
2018-05-12T07:07:23.923Z,99795.22
2018-05-12T07:09:50.446Z,99796.58
2018-05-12T07:12:17.069Z,99789.30
2018-05-12T07:14:43.599Z,99789.59
2018-05-12T07:17:10.090Z,99788.45
2018-05-12T07:19:36.601Z,99788.78
2018-05-12T07:22:03.091Z,99787.26
2018-05-12T07:24:29.694Z,99785.27
2018-05-12T07:26:56.192Z,99784.94
2018-05-12T07:29:22.623Z,99788.16
2018-05-12T07:31:49.027Z,99790.77
2018-05-12T07:34:15.693Z,99795.19
2018-05-12T07:36:42.149Z,99797.63
2018-05-12T07:39:08.698Z,99798.62
2018-05-12T07:41:35.121Z,99799.48
2018-05-12T07:44:02.209Z,99799.26
2018-05-12T07:46:28.774Z,99794.11
2018-05-12T07:48:55.358Z,99802.82
2018-05-12T07:51:21.875Z,99788.20
2018-05-12T07:53:48.354Z,99786.82
2018-05-12T07:56:14.838Z,99790.70
2018-05-12T07:58:41.341Z,99780.03
2018-05-12T08:01:15.233Z,99787.13
2018-05-12T08:03:44.024Z,99785.38
2018-05-12T08:06:10.871Z,99779.44
2018-05-12T08:08:37.345Z,99777.08
2018-05-12T08:11:03.912Z,99777.89
2018-05-12T08:13:30.415Z,99779.17
2018-05-12T08:15:56.812Z,99775.53
2018-05-12T08:18:23.203Z,99774.52
2018-05-12T08:20:49.674Z,99768.32
2018-05-12T08:23:17.157Z,99777.16
2018-05-12T08:25:43.620Z,99773.56
2018-05-12T08:28:10.129Z,99779.69
2018-05-12T08:30:36.633Z,99778.89
2018-05-12T08:33:03.101Z,99775.04
2018-05-12T08:35:29.626Z,99768.06
2018-05-12T08:37:56.087Z,99771.85
2018-05-12T08:40:22.678Z,99763.66
2018-05-12T08:42:49.103Z,99771.80
2018-05-12T08:45:15.544Z,99766.91
2018-05-12T08:47:44.812Z,99766.60
2018-05-12T08:50:11.356Z,99761.42
2018-05-12T08:52:37.750Z,99759.00
2018-05-12T08:55:04.171Z,99755.27
2018-05-12T08:57:30.590Z,99754.47
2018-05-12T09:00:00.495Z,99752.59
2018-05-12T09:02:27.917Z,99752.27
2018-05-12T09:04:54.504Z,99754.87
2018-05-12T09:07:21.066Z,99752.78
2018-05-12T09:09:47.460Z,99752.91
2018-05-12T09:12:25.630Z,99752.41
2018-05-12T09:14:52.917Z,99743.42
2018-05-12T09:17:19.273Z,99732.52
2018-05-12T09:19:45.734Z,99739.06
2018-05-12T09:22:13.191Z,99740.97
2018-05-12T09:24:39.726Z,99726.80
2018-05-12T09:27:06.238Z,99726.47
2018-05-12T09:29:32.820Z,99727.27
2018-05-12T09:31:59.200Z,99723.00
2018-05-12T09:34:25.694Z,99719.48
2018-05-12T09:36:52.198Z,99727.88
2018-05-12T09:39:18.607Z,99730.27
2018-05-12T09:41:45.274Z,99723.68
2018-05-12T09:44:12.714Z,99712.00
2018-05-12T09:46:41.437Z,99710.45
2018-05-12T09:49:08.375Z,99701.77
2018-05-12T09:51:34.831Z,99706.03
2018-05-12T09:54:01.313Z,99707.31
2018-05-12T09:56:27.794Z,99701.59
2018-05-12T09:58:54.187Z,99696.42
2018-05-12T10:01:20.759Z,99692.62
2018-05-12T10:03:47.208Z,99688.80
2018-05-12T10:06:13.667Z,99690.42
2018-05-12T10:08:40.149Z,99690.74
2018-05-12T10:11:06.653Z,99687.07
2018-05-12T10:13:33.027Z,99681.53
2018-05-12T10:15:59.754Z,99686.23
2018-05-12T10:18:27.832Z,99680.97
2018-05-12T10:20:54.663Z,99679.84
2018-05-12T10:23:21.167Z,99683.20
2018-05-12T10:25:47.953Z,99685.18
2018-05-12T10:28:19.253Z,99675.64
2018-05-12T10:30:50.156Z,99670.23
2018-05-12T10:33:17.635Z,99657.60
2018-05-12T10:35:47.266Z,99660.63
2018-05-12T10:38:13.880Z,99654.25
2018-05-12T10:40:41.258Z,99658.58
2018-05-12T10:43:07.764Z,99658.04
2018-05-12T10:45:34.170Z,99651.48
2018-05-12T10:48:00.667Z,99665.06
2018-05-12T10:50:27.082Z,99664.47
2018-05-12T10:52:53.629Z,99660.63
2018-05-12T10:55:20.176Z,99659.38
2018-05-12T10:57:46.648Z,99654.56
2018-05-12T11:00:13.180Z,99649.19
2018-05-12T11:02:39.637Z,99645.75
2018-05-12T11:05:06.045Z,99646.62
2018-05-12T11:07:32.505Z,99644.34
2018-05-12T11:09:58.998Z,99651.17
2018-05-12T11:12:25.402Z,99644.19
2018-05-12T11:14:52.047Z,99641.48
2018-05-12T11:17:18.578Z,99647.70
2018-05-12T11:19:45.082Z,99631.72
2018-05-12T11:22:11.677Z,99627.57
2018-05-12T11:24:38.173Z,99630.41
2018-05-12T11:27:04.602Z,99617.11
2018-05-12T11:29:31.173Z,99627.49
2018-05-12T11:31:59.521Z,99625.69
2018-05-12T11:34:25.951Z,99623.52
2018-05-12T11:36:52.622Z,99612.48
2018-05-12T11:39:19.288Z,99603.91
2018-05-12T11:41:45.833Z,99604.91
2018-05-12T11:44:12.315Z,99602.92
2018-05-12T11:46:38.839Z,99603.10
2018-05-12T11:49:05.307Z,99599.16
2018-05-12T11:51:31.784Z,99593.00
2018-05-12T11:53:58.255Z,99601.35
2018-05-12T11:56:24.687Z,99597.45
2018-05-12T11:58:51.187Z,99599.28
2018-05-12T12:01:17.864Z,99591.70
2018-05-12T12:03:44.539Z,99585.71
2018-05-12T12:06:11.069Z,99583.47
2018-05-12T12:08:37.784Z,99587.45
2018-05-12T12:11:04.545Z,99586.02
2018-05-12T12:13:31.887Z,99580.89
2018-05-12T12:16:04.081Z,99573.31
2018-05-12T12:18:34.558Z,99570.47
2018-05-12T12:21:07.655Z,99569.85
2018-05-12T12:23:37.930Z,99559.52
2018-05-12T12:26:10.838Z,99560.48
2018-05-12T12:28:40.502Z,99557.48
2018-05-12T12:31:09.450Z,99555.02
2018-05-12T12:33:36.102Z,99541.84
2018-05-12T12:36:02.794Z,99539.31
2018-05-12T12:38:29.417Z,99529.61
2018-05-12T12:40:55.857Z,99532.62
2018-05-12T12:43:22.438Z,99529.17
2018-05-12T12:45:48.960Z,99521.63
2018-05-12T12:48:15.458Z,99525.34
2018-05-12T12:50:41.884Z,99520.38
2018-05-12T12:53:08.428Z,99521.81
2018-05-12T12:55:34.922Z,99515.61
2018-05-12T12:58:01.403Z,99505.69
2018-05-12T13:00:27.937Z,99503.17
2018-05-12T13:02:54.403Z,99500.95
2018-05-12T13:05:21.190Z,99507.03
2018-05-12T13:07:47.917Z,99503.11
2018-05-12T13:10:32.810Z,99489.19
2018-05-12T13:13:01.233Z,99494.26
2018-05-12T13:15:27.731Z,99492.45
2018-05-12T13:17:54.227Z,99487.66
2018-05-12T13:20:20.696Z,99484.22
2018-05-12T13:22:47.344Z,99484.39
2018-05-12T13:25:13.872Z,99488.47
2018-05-12T13:27:41.919Z,99482.91
2018-05-12T13:30:08.424Z,99475.14
2018-05-12T13:32:35.131Z,99473.02
2018-05-12T13:35:01.652Z,99468.42
2018-05-12T13:37:28.066Z,99464.83
2018-05-12T13:39:54.663Z,99467.78
2018-05-12T13:42:21.167Z,99461.98
2018-05-12T13:44:47.589Z,99455.38
2018-05-12T13:47:13.994Z,99454.87
2018-05-12T13:49:40.473Z,99458.02
2018-05-12T13:52:06.991Z,99454.41
2018-05-12T13:54:33.448Z,99448.95
2018-05-12T13:56:59.827Z,99454.95
2018-05-12T13:59:26.369Z,99454.52
2018-05-12T14:01:52.809Z,99455.67
2018-05-12T14:04:19.238Z,99447.84
2018-05-12T14:06:45.771Z,99446.81
2018-05-12T14:09:12.256Z,99445.48
2018-05-12T14:11:38.707Z,99435.67
2018-05-12T14:14:05.128Z,99430.37
2018-05-12T14:16:31.552Z,99431.19
2018-05-12T14:18:57.996Z,99430.92
2018-05-12T14:21:24.605Z,99425.20
2018-05-12T14:23:51.080Z,99431.42
2018-05-12T14:26:17.639Z,99437.08
2018-05-12T14:28:44.080Z,99424.58
2018-05-12T14:31:10.460Z,99425.59
2018-05-12T14:33:36.946Z,99430.87
2018-05-12T14:36:03.432Z,99432.44
2018-05-12T14:38:30.114Z,99425.84
2018-05-12T14:40:56.746Z,99426.36
2018-05-12T14:43:23.192Z,99425.98
2018-05-12T14:45:49.600Z,99426.03
2018-05-12T14:48:16.117Z,99423.29
2018-05-12T14:50:42.582Z,99423.34
2018-05-12T14:53:08.977Z,99426.93
2018-05-12T14:55:35.614Z,99422.81
2018-05-12T14:58:02.050Z,99421.69
2018-05-12T15:00:28.561Z,99427.02
2018-05-12T15:02:54.972Z,99424.13
2018-05-12T15:05:21.442Z,99418.56
2018-05-12T15:07:47.843Z,99415.09
2018-05-12T15:10:14.411Z,99407.28
2018-05-12T15:12:40.914Z,99404.52
2018-05-12T15:15:07.393Z,99408.39
2018-05-12T15:17:33.854Z,99401.52
2018-05-12T15:20:00.343Z,99403.50
2018-05-12T15:22:26.888Z,99400.23
2018-05-12T15:24:54.252Z,99391.11
2018-05-12T15:27:20.712Z,99394.26
2018-05-12T15:29:47.093Z,99388.42
2018-05-12T15:32:13.470Z,99401.18
2018-05-12T15:34:39.944Z,99393.30
2018-05-12T15:37:06.403Z,99390.63
2018-05-12T15:39:32.759Z,99387.62
2018-05-12T15:41:59.338Z,99390.66
2018-05-12T15:44:26.126Z,99393.80
2018-05-12T15:46:52.731Z,99391.92
2018-05-12T15:49:19.262Z,99395.21
2018-05-12T15:51:45.701Z,99389.17
2018-05-12T15:54:12.313Z,99390.45
2018-05-12T15:56:38.845Z,99387.92
2018-05-12T15:59:05.390Z,99390.34
2018-05-12T16:01:31.834Z,99390.17
2018-05-12T16:03:58.236Z,99392.42
2018-05-12T16:06:24.614Z,99392.59
2018-05-12T16:08:51.028Z,99398.02
2018-05-12T16:11:17.429Z,99399.05
2018-05-12T16:13:43.938Z,99401.08
2018-05-12T16:16:10.347Z,99407.58
2018-05-12T16:18:36.831Z,99409.25
2018-05-12T16:21:03.387Z,99408.56
2018-05-12T16:23:29.815Z,99413.16
2018-05-12T16:25:56.311Z,99408.81
2018-05-12T16:28:22.735Z,99415.02
2018-05-12T16:30:49.197Z,99411.05
2018-05-12T16:33:15.609Z,99416.16
2018-05-12T16:35:43.299Z,99419.30
2018-05-12T16:38:09.791Z,99419.20
2018-05-12T16:40:36.328Z,99417.97
2018-05-12T16:43:02.917Z,99410.72
2018-05-12T16:45:29.341Z,99413.10
2018-05-12T16:47:55.921Z,99423.21
2018-05-12T16:50:22.436Z,99419.23
2018-05-12T16:52:48.962Z,99420.98
2018-05-12T16:55:21.790Z,99423.95
2018-05-12T16:57:48.384Z,99432.20
2018-05-12T17:00:14.867Z,99427.80
2018-05-12T17:02:41.311Z,99432.07
2018-05-12T17:05:07.692Z,99432.58
2018-05-12T17:07:34.169Z,99429.23
2018-05-12T17:10:00.580Z,99433.28
2018-05-12T17:12:26.990Z,99430.22
2018-05-12T17:14:53.361Z,99433.38
2018-05-12T17:17:19.852Z,99425.11
2018-05-12T17:19:46.351Z,99429.39
2018-05-12T17:22:12.724Z,99425.70
2018-05-12T17:24:39.163Z,99431.43
2018-05-12T17:27:05.626Z,99428.71
2018-05-12T17:29:32.041Z,99423.92
2018-05-12T17:31:58.601Z,99428.05
2018-05-12T17:34:25.074Z,99419.41
2018-05-12T17:36:51.426Z,99423.98
2018-05-12T17:39:17.855Z,99419.71
2018-05-12T17:41:44.206Z,99421.80
2018-05-12T17:44:11.406Z,99433.95
2018-05-12T17:46:37.853Z,99443.50
2018-05-12T17:49:04.325Z,99444.61
2018-05-12T17:51:30.810Z,99450.92
2018-05-12T17:53:57.326Z,99453.96
2018-05-12T17:56:23.730Z,99448.84
2018-05-12T17:58:50.125Z,99442.09
2018-05-12T18:01:16.613Z,99443.21
2018-05-12T18:03:43.002Z,99442.25
2018-05-12T18:06:09.514Z,99446.31
2018-05-12T18:08:35.837Z,99455.53
2018-05-12T18:11:09.106Z,99455.22
2018-05-12T18:13:35.580Z,99461.98
2018-05-12T18:16:01.963Z,99460.07
2018-05-12T18:18:28.382Z,99468.29
2018-05-12T18:20:54.888Z,99469.89
2018-05-12T18:23:21.324Z,99475.58
2018-05-12T18:25:47.836Z,99466.39
2018-05-12T18:28:14.247Z,99470.83
2018-05-12T18:30:40.636Z,99478.66
2018-05-12T18:33:07.122Z,99481.41
2018-05-12T18:35:33.581Z,99480.28
2018-05-12T18:38:00.103Z,99482.67
2018-05-12T18:40:26.464Z,99484.54
2018-05-12T18:42:52.884Z,99486.02
2018-05-12T18:45:19.272Z,99488.03
2018-05-12T18:47:45.725Z,99486.58
2018-05-12T18:50:12.043Z,99488.39
2018-05-12T18:52:38.344Z,99486.34
2018-05-12T18:55:04.788Z,99492.36
2018-05-12T18:57:31.231Z,99490.94
2018-05-12T18:59:57.572Z,99492.77
2018-05-12T19:02:23.885Z,99495.32
2018-05-12T19:04:50.238Z,99495.91
2018-05-12T19:07:16.694Z,99500.13
2018-05-12T19:09:43.049Z,99505.37
2018-05-12T19:12:09.374Z,99511.23
2018-05-12T19:14:35.747Z,99515.31
2018-05-12T19:17:03.218Z,99519.98
2018-05-12T19:19:29.545Z,99517.59
2018-05-12T19:21:56.016Z,99518.27
2018-05-12T19:24:22.337Z,99524.71
2018-05-12T19:26:48.735Z,99522.55
2018-05-12T19:29:15.173Z,99527.22
2018-05-12T19:31:41.603Z,99533.82
2018-05-12T19:34:08.019Z,99539.21
2018-05-12T19:36:34.405Z,99538.33
2018-05-12T19:39:00.908Z,99536.50
2018-05-12T19:41:27.328Z,99528.84
2018-05-12T19:43:53.621Z,99529.24
2018-05-12T19:46:20.042Z,99527.20
2018-05-12T19:48:46.387Z,99527.86
2018-05-12T19:51:12.836Z,99536.70
2018-05-12T19:53:39.215Z,99544.92
2018-05-12T19:56:05.565Z,99545.94
2018-05-12T19:58:31.994Z,99550.20
2018-05-12T20:00:58.386Z,99551.11
2018-05-12T20:03:24.751Z,99546.77
2018-05-12T20:05:51.150Z,99552.14
2018-05-12T20:08:17.447Z,99547.44
2018-05-12T20:10:43.780Z,99543.64
2018-05-12T20:13:10.195Z,99540.72
2018-05-12T20:15:37.376Z,99543.67
2018-05-12T20:18:03.809Z,99538.97
2018-05-12T20:20:30.253Z,99547.76
2018-05-12T20:22:56.714Z,99547.22
2018-05-12T20:25:23.017Z,99536.14
2018-05-12T20:27:49.403Z,99541.92
2018-05-12T20:30:15.818Z,99548.25
2018-05-12T20:32:42.291Z,99545.55
2018-05-12T20:35:08.706Z,99542.32
2018-05-12T20:37:35.157Z,99539.81
2018-05-12T20:40:01.429Z,99533.48
2018-05-12T20:42:28.829Z,99539.00
2018-05-12T20:44:55.158Z,99530.19
2018-05-12T20:47:21.601Z,99540.50
2018-05-12T20:49:47.948Z,99549.37
2018-05-12T20:52:14.411Z,99552.45
2018-05-12T20:54:40.750Z,99551.45
2018-05-12T20:57:07.168Z,99557.58
2018-05-12T20:59:33.526Z,99559.22
2018-05-12T21:01:59.894Z,99566.53
2018-05-12T21:04:26.326Z,99565.58
2018-05-12T21:06:52.693Z,99562.62
2018-05-12T21:09:19.111Z,99569.67
2018-05-12T21:11:45.505Z,99564.97
2018-05-12T21:14:11.984Z,99571.62
2018-05-12T21:16:38.385Z,99563.02
2018-05-12T21:19:04.759Z,99564.30
2018-05-12T21:21:31.082Z,99564.91
2018-05-12T21:23:57.527Z,99569.36
2018-05-12T21:26:23.910Z,99580.23
2018-05-12T21:28:50.250Z,99581.27
2018-05-12T21:31:16.647Z,99575.92
2018-05-12T21:33:43.122Z,99575.59
2018-05-12T21:36:09.515Z,99569.27
2018-05-12T21:38:35.821Z,99566.05
2018-05-12T21:41:02.271Z,99567.31
2018-05-12T21:43:28.581Z,99566.19
2018-05-12T21:45:54.926Z,99568.31
2018-05-12T21:48:21.304Z,99569.98
2018-05-12T21:50:47.594Z,99568.98
2018-05-12T21:53:13.971Z,99562.56
2018-05-12T21:55:40.385Z,99569.23
2018-05-12T21:58:06.747Z,99568.97
2018-05-12T22:00:33.115Z,99575.13
2018-05-12T22:02:59.417Z,99573.70
2018-05-12T22:05:25.868Z,99569.63
2018-05-12T22:07:52.335Z,99574.81
2018-05-12T22:10:18.657Z,99571.37
2018-05-12T22:12:45.049Z,99574.77
2018-05-12T22:15:11.394Z,99575.18
2018-05-12T22:17:37.760Z,99585.19
2018-05-12T22:20:04.303Z,99584.55
2018-05-12T22:22:30.649Z,99586.84
2018-05-12T22:24:57.114Z,99576.94
2018-05-12T22:27:23.542Z,99573.69
2018-05-12T22:29:49.849Z,99572.52
2018-05-12T22:32:16.460Z,99568.90
2018-05-12T22:34:43.302Z,99566.19
2018-05-12T22:37:09.738Z,99569.93
2018-05-12T22:39:36.078Z,99567.51
2018-05-12T22:42:02.353Z,99569.77
2018-05-12T22:44:29.043Z,99573.84
2018-05-12T22:46:55.734Z,99568.38
2018-05-12T22:49:22.087Z,99563.14
2018-05-12T22:51:48.492Z,99560.48
2018-05-12T22:54:14.942Z,99568.52
2018-05-12T22:56:41.407Z,99558.86
2018-05-12T22:59:07.727Z,99560.88
2018-05-12T23:01:34.122Z,99556.12
2018-05-12T23:04:00.607Z,99558.91
2018-05-12T23:06:26.991Z,99561.38
2018-05-12T23:08:53.466Z,99561.20
2018-05-12T23:11:19.899Z,99555.03
2018-05-12T23:13:46.377Z,99559.27
2018-05-12T23:16:12.769Z,99558.55
2018-05-12T23:18:39.118Z,99562.47
2018-05-12T23:21:05.719Z,99556.25
2018-05-12T23:23:32.193Z,99561.68
2018-05-12T23:25:58.616Z,99561.07
2018-05-12T23:28:25.096Z,99556.61
2018-05-12T23:30:51.529Z,99559.55
2018-05-12T23:33:18.257Z,99556.53
2018-05-12T23:35:44.682Z,99544.89
2018-05-12T23:38:11.109Z,99536.45
2018-05-12T23:40:37.614Z,99528.83
2018-05-12T23:43:04.019Z,99523.53
2018-05-12T23:45:30.411Z,99532.04
2018-05-12T23:47:56.899Z,99527.98
2018-05-12T23:50:23.387Z,99528.39
2018-05-12T23:52:49.754Z,99527.77
2018-05-12T23:55:16.223Z,99524.22
2018-05-12T23:57:42.672Z,99515.83
